Time;durP1;ratioP1;P1;durP2;ratioP2;P2;SDS_P1;SDS_P2;PMS_P1;PMS_P2;Temp;Humidity;BMP_temperature;BMP_pressure;BME280_temperature;BME280_humidity;BME280_pressure;Samples;Min_cycle;Max_cycle;Signal;HPM_P1;HPM_P2
2024/04/08 00:02:09;;;;;;;10.30;4.73;;;;;;;17.68;51.29;95812.72;5533825;25;21226;-70
2024/04/08 00:04:35;;;;;;;10.33;3.70;;;;;;;17.88;51.42;95811.09;5533178;25;20217;-68
2024/04/08 00:07:00;;;;;;;13.47;4.27;;;;;;;17.98;51.03;95820.03;5529157;25;20301;-69
2024/04/08 00:09:25;;;;;;;11.67;4.07;;;;;;;17.96;50.55;95817.47;5533738;25;20716;-70
2024/04/08 00:11:51;;;;;;;15.10;4.53;;;;;;;18.03;49.98;95814.34;5533661;25;20300;-70
2024/04/08 00:14:16;;;;;;;11.67;4.00;;;;;;;17.99;49.52;95809.25;5533762;25;20256;-69
2024/04/08 00:16:42;;;;;;;8.53;4.07;;;;;;;17.99;49.50;95809.25;5533961;25;20810;-70
2024/04/08 00:19:07;;;;;;;9.40;3.80;;;;;;;18.02;49.21;95808.16;5534014;25;20225;-69
2024/04/08 00:21:32;;;;;;;6.73;3.50;;;;;;;18.01;49.61;95808.31;5533707;25;20778;-70
2024/04/08 00:23:58;;;;;;;9.13;4.00;;;;;;;18.01;49.63;95808.31;5533733;25;20235;-68
2024/04/08 00:26:23;;;;;;;10.37;4.03;;;;;;;17.89;50.40;95810.16;5533814;25;20245;-69
2024/04/08 00:28:48;;;;;;;10.33;4.40;;;;;;;17.77;50.60;95801.38;5533644;25;20275;-69
2024/04/08 00:31:14;;;;;;;9.70;3.83;;;;;;;17.79;50.27;95802.09;5533540;25;20341;-70
2024/04/08 00:33:39;;;;;;;6.47;3.83;;;;;;;17.83;50.71;95798.22;5529992;25;20565;-67
2024/04/08 00:36:05;;;;;;;9.80;3.60;;;;;;;17.65;50.84;95805.03;5496132;26;20230;-70
2024/04/08 00:38:30;;;;;;;7.43;3.70;;;;;;;17.75;50.52;95792.69;5497840;25;20233;-69
2024/04/08 00:41:02;;;;;;;9.17;4.13;;;;;;;17.70;50.85;95795.72;5533139;25;20332;-68
2024/04/08 00:43:28;;;;;;;7.97;3.90;;;;;;;17.69;51.27;95793.16;5532545;25;20248;-70
2024/04/08 00:45:55;;;;;;;11.77;4.30;;;;;;;17.64;51.56;95795.38;5532915;25;20445;-70
2024/04/08 00:48:21;;;;;;;9.27;3.80;;;;;;;17.61;51.63;95791.16;5523359;25;20457;-69
2024/04/08 00:50:49;;;;;;;7.40;3.70;;;;;;;17.54;51.89;95793.47;5520255;25;20547;-70
2024/04/08 00:53:16;;;;;;;7.20;3.70;;;;;;;17.62;51.69;95792.00;5517001;25;20284;-70
2024/04/08 00:55:43;;;;;;;9.77;4.23;;;;;;;17.64;51.46;95788.25;5517264;25;20438;-69
2024/04/08 00:58:08;;;;;;;16.40;5.00;;;;;;;17.49;52.14;95793.00;5508990;25;20463;-70
2024/04/08 01:00:34;;;;;;;8.00;3.67;;;;;;;17.52;52.06;95800.69;5511738;26;20506;-71
2024/04/08 01:03:03;;;;;;;8.13;3.40;;;;;;;17.40;52.61;95775.16;5516926;25;20234;-69
2024/04/08 01:05:29;;;;;;;16.37;6.33;;;;;;;17.04;53.39;95778.97;5516762;25;20263;-69
2024/04/08 01:07:54;;;;;;;21.33;5.77;;;;;;;17.28;52.71;95786.78;5517278;25;20470;-70
2024/04/08 01:10:20;;;;;;;12.67;4.70;;;;;;;17.37;52.22;95777.25;5517326;25;20450;-69
2024/04/08 01:12:46;;;;;;;11.47;4.23;;;;;;;17.36;52.52;95773.72;5502702;26;20725;-70
2024/04/08 01:15:12;;;;;;;10.47;4.70;;;;;;;17.30;52.73;95774.25;5487734;25;20268;-69
2024/04/08 01:17:37;;;;;;;14.40;5.07;;;;;;;17.35;52.80;95764.94;5513196;26;20243;-70
2024/04/08 01:20:04;;;;;;;9.67;4.57;;;;;;;17.39;52.33;95775.31;5517382;25;20953;-69
2024/04/08 01:22:31;;;;;;;12.27;4.50;;;;;;;17.42;52.48;95780.38;5516859;25;20229;-69
2024/04/08 01:25:00;;;;;;;15.57;4.30;;;;;;;17.41;52.44;95774.22;5515443;25;20506;-69
2024/04/08 01:27:28;;;;;;;6.00;3.70;;;;;;;17.34;53.25;95778.34;5515597;25;20517;-69
2024/04/08 01:29:53;;;;;;;7.43;4.60;;;;;;;17.40;52.36;95796.38;5501816;26;20809;-70
2024/04/08 01:32:18;;;;;;;11.57;5.53;;;;;;;17.47;52.44;95800.22;5517127;25;20454;-70
2024/04/08 01:34:44;;;;;;;12.23;3.90;;;;;;;17.38;53.05;95805.44;5500176;25;20903;-69
2024/04/08 01:37:09;;;;;;;11.10;4.37;;;;;;;17.32;53.07;95817.41;5517709;25;20688;-69
2024/04/08 01:39:35;;;;;;;6.57;4.03;;;;;;;17.33;53.06;95808.47;5517195;25;20557;-69
2024/04/08 01:42:00;;;;;;;10.10;3.77;;;;;;;17.23;53.18;95807.53;5517484;25;20230;-69
2024/04/08 01:44:26;;;;;;;11.43;4.10;;;;;;;17.29;52.94;95820.28;5514319;25;20217;-69
2024/04/08 01:46:51;;;;;;;5.83;3.43;;;;;;;17.22;53.18;95796.06;5518777;25;20225;-70
2024/04/08 01:49:17;;;;;;;9.70;5.97;;;;;;;17.33;52.59;95801.34;5527677;25;20240;-68
2024/04/08 01:51:42;;;;;;;13.90;6.00;;;;;;;17.40;52.32;95777.81;5536488;25;20252;-69
2024/04/08 01:54:12;;;;;;;10.00;3.67;;;;;;;17.20;52.90;95795.34;5533831;25;20217;-68
2024/04/08 01:56:38;;;;;;;8.30;4.10;;;;;;;17.24;52.81;95801.25;5509650;25;20234;-70
2024/04/08 01:59:04;;;;;;;14.53;4.40;;;;;;;17.29;52.85;95796.41;5520632;25;20965;-68
2024/04/08 02:01:29;;;;;;;7.63;4.00;;;;;;;17.31;52.88;95787.34;5513959;25;20597;-68
2024/04/08 02:03:54;;;;;;;9.73;4.17;;;;;;;17.16;52.60;95785.13;5519374;25;20277;-70
2024/04/08 02:06:20;;;;;;;11.50;4.50;;;;;;;17.17;52.92;95787.63;5520594;25;20264;-69
2024/04/08 02:08:45;;;;;;;8.77;4.30;;;;;;;17.14;53.37;95783.41;5518099;25;20210;-69
2024/04/08 02:11:11;;;;;;;10.47;4.10;;;;;;;17.10;53.22;95776.69;5517454;25;20774;-70
2024/04/08 02:13:36;;;;;;;11.70;4.20;;;;;;;17.08;53.18;95785.75;5514035;25;20229;-69
2024/04/08 02:16:07;;;;;;;13.30;4.40;;;;;;;16.95;53.74;95785.00;5503594;25;20225;-69
2024/04/08 02:18:35;;;;;;;9.73;4.10;;;;;;;16.91;53.69;95789.69;5516988;25;20269;-69
2024/04/08 02:21:01;;;;;;;8.00;3.40;;;;;;;16.97;53.84;95791.88;5515045;25;20457;-69
2024/04/08 02:23:26;;;;;;;11.20;4.50;;;;;;;16.85;53.85;95787.56;5516509;25;20606;-70
2024/04/08 02:25:52;;;;;;;8.13;4.20;;;;;;;16.19;56.53;95789.97;5516709;26;20442;-69
2024/04/08 02:28:17;;;;;;;10.07;3.70;;;;;;;16.60;55.17;95794.72;5515369;25;20233;-70
2024/04/08 02:30:43;;;;;;;9.30;3.70;;;;;;;16.76;54.75;95793.53;5516020;26;20225;-70
2024/04/08 02:33:08;;;;;;;9.87;4.60;;;;;;;16.71;54.82;95778.00;5516539;25;20288;-70
2024/04/08 02:35:35;;;;;;;8.23;4.90;;;;;;;16.79;54.54;95772.13;5516626;25;21081;-70
2024/04/08 02:38:03;;;;;;;9.97;3.83;;;;;;;16.57;54.97;95771.13;5511242;25;21138;-68
2024/04/08 02:40:28;;;;;;;11.87;3.97;;;;;;;16.77;54.77;95766.94;5500620;26;20470;-69
2024/04/08 02:42:54;;;;;;;9.13;4.50;;;;;;;16.14;56.78;95778.91;5515539;25;20510;-69
2024/04/08 02:45:19;;;;;;;9.80;4.50;;;;;;;16.02;56.82;95778.03;5513720;25;20584;-69
2024/04/08 02:47:44;;;;;;;11.20;4.17;;;;;;;16.36;56.21;95763.03;5515782;25;20275;-69
2024/04/08 02:50:10;;;;;;;14.87;4.90;;;;;;;16.47;55.67;95768.34;5515806;26;20309;-70
2024/04/08 02:52:35;;;;;;;10.43;4.50;;;;;;;16.47;55.45;95764.88;5514523;25;20241;-69
2024/04/08 02:55:00;;;;;;;15.47;4.73;;;;;;;16.45;55.70;95772.91;5515629;25;20285;-68
2024/04/08 02:57:26;;;;;;;15.77;4.30;;;;;;;16.24;56.13;95764.81;5516254;25;20269;-69
2024/04/08 02:59:51;;;;;;;10.80;4.47;;;;;;;16.36;56.13;95763.03;5515860;25;20337;-69
2024/04/08 03:02:17;;;;;;;8.73;4.83;;;;;;;16.44;55.67;95762.44;5514641;25;20321;-68
2024/04/08 03:04:42;;;;;;;8.70;4.87;;;;;;;16.51;55.34;95761.88;5515133;25;20276;-70
2024/04/08 03:07:07;;;;;;;15.50;4.43;;;;;;;16.50;55.35;95761.97;5515515;25;20213;-69
2024/04/08 03:09:33;;;;;;;8.30;3.90;;;;;;;16.47;55.26;95759.56;5514914;26;20213;-68
2024/04/08 03:11:58;;;;;;;6.13;3.40;;;;;;;16.53;55.11;95759.06;5512493;25;20300;-70
2024/04/08 03:14:23;;;;;;;10.60;4.17;;;;;;;16.50;55.36;95754.03;5514957;25;20275;-70
2024/04/08 03:16:49;;;;;;;8.53;4.73;;;;;;;16.42;55.49;95759.94;5515436;26;20229;-69
2024/04/08 03:19:14;;;;;;;8.83;5.20;;;;;;;16.49;55.25;95757.66;5515808;25;20229;-71
2024/04/08 03:21:40;;;;;;;10.43;4.47;;;;;;;16.47;55.70;95754.28;5514555;25;20272;-70
2024/04/08 03:24:05;;;;;;;9.00;4.33;;;;;;;16.48;55.40;95754.13;5502269;25;21214;-70
2024/04/08 03:26:31;;;;;;;23.63;7.33;;;;;;;16.52;55.71;95757.41;5515394;25;20218;-68
2024/04/08 03:28:56;;;;;;;14.83;5.00;;;;;;;16.53;55.63;95751.13;5515331;26;20325;-69
2024/04/08 03:31:21;;;;;;;11.73;4.77;;;;;;;16.49;55.78;95752.34;5513971;25;20256;-70
2024/04/08 03:33:47;;;;;;;12.40;4.63;;;;;;;16.46;56.04;95758.72;5514233;26;21066;-70
2024/04/08 03:36:16;;;;;;;12.60;6.17;;;;;;;16.46;55.64;95768.47;5515688;25;20321;-69
2024/04/08 03:38:42;;;;;;;15.27;5.13;;;;;;;16.48;55.64;95771.84;5515455;25;20217;-69
2024/04/08 03:41:07;;;;;;;9.90;5.27;;;;;;;16.59;55.61;95771.84;5515826;25;20474;-68
2024/04/08 03:43:33;;;;;;;8.53;5.20;;;;;;;16.49;56.10;95773.53;5502399;25;20568;-68
2024/04/08 03:45:59;;;;;;;10.27;5.10;;;;;;;16.44;56.11;95779.19;5516130;25;20333;-69
2024/04/08 03:48:25;;;;;;;16.57;5.83;;;;;;;16.39;55.95;95781.31;5516131;25;20891;-69
2024/04/08 03:50:50;;;;;;;11.43;5.27;;;;;;;16.51;55.68;95790.13;5516426;25;20442;-69
2024/04/08 03:53:16;;;;;;;8.87;4.87;;;;;;;16.35;56.12;95797.59;5509371;25;20289;-69
2024/04/08 03:55:42;;;;;;;9.03;4.30;;;;;;;16.44;55.70;95802.16;5489480;26;20234;-68
2024/04/08 03:58:07;;;;;;;13.20;4.80;;;;;;;16.26;56.49;95807.06;5513463;25;20554;-69
2024/04/08 04:00:33;;;;;;;11.27;6.63;;;;;;;16.25;56.40;95802.72;5516120;26;20283;-68
2024/04/08 04:02:58;;;;;;;8.30;4.27;;;;;;;16.23;56.12;95808.16;5514743;25;20233;-69
2024/04/08 04:05:23;;;;;;;13.17;4.50;;;;;;;16.18;56.27;95798.84;5516035;26;20524;-67
2024/04/08 04:07:52;;;;;;;14.70;4.63;;;;;;;16.12;56.60;95805.47;5515794;25;20221;-70
2024/04/08 04:10:18;;;;;;;13.27;4.57;;;;;;;16.16;56.08;95803.41;5516653;26;20264;-68
2024/04/08 04:12:44;;;;;;;14.57;4.93;;;;;;;16.16;56.57;95801.63;5507976;25;20574;-68
2024/04/08 04:15:12;;;;;;;13.30;4.80;;;;;;;16.25;56.00;95811.53;5512144;25;20469;-71
2024/04/08 04:17:41;;;;;;;28.00;7.20;;;;;;;16.24;56.03;95803.69;5515515;25;20533;-68
2024/04/08 04:20:10;;;;;;;9.40;4.23;;;;;;;16.06;56.58;95812.09;5508152;25;20462;-70
2024/04/08 04:22:36;;;;;;;10.30;5.13;;;;;;;16.12;56.08;95810.75;5506725;26;21359;-68
2024/04/08 04:25:03;;;;;;;18.70;4.93;;;;;;;16.24;55.90;95812.47;5516415;25;20494;-69
2024/04/08 04:27:29;;;;;;;10.03;4.97;;;;;;;16.15;55.67;95799.09;5517395;25;20225;-70
2024/04/08 04:29:54;;;;;;;11.57;5.67;;;;;;;16.09;56.33;95805.72;5518731;25;20504;-69
2024/04/08 04:32:19;;;;;;;7.20;4.53;;;;;;;15.88;56.67;95798.41;5519255;26;20229;-69
2024/04/08 04:34:45;;;;;;;14.93;4.67;;;;;;;16.03;56.38;95814.94;5506492;25;20261;-70
2024/04/08 04:37:10;;;;;;;12.50;5.03;;;;;;;15.91;57.15;95821.16;5473022;25;20342;-68
2024/04/08 04:39:36;;;;;;;20.67;5.03;;;;;;;15.64;57.18;95832.78;5408407;26;20232;-69
2024/04/08 04:42:02;;;;;;;11.33;4.80;;;;;;;15.68;57.57;95825.47;5382060;26;20881;-70
2024/04/08 04:44:28;;;;;;;14.57;5.30;;;;;;;15.58;57.30;95827.94;5386870;26;20378;-69
2024/04/08 04:46:54;;;;;;;11.20;4.13;;;;;;;15.65;57.32;95830.97;5392313;26;20470;-71
2024/04/08 04:49:19;;;;;;;14.67;4.90;;;;;;;15.78;57.17;95839.75;5408880;26;20309;-69
2024/04/08 04:51:45;;;;;;;15.33;5.17;;;;;;;15.87;56.78;95846.13;5408646;26;20502;-69
2024/04/08 04:54:10;;;;;;;15.13;6.37;;;;;;;15.85;56.61;95833.03;5408851;26;20688;-69
2024/04/08 04:56:36;;;;;;;13.63;5.93;;;;;;;15.92;56.40;95829.94;5409231;26;20690;-68
2024/04/08 04:59:01;;;;;;;16.83;5.73;;;;;;;15.88;56.82;95834.63;5392682;26;20232;-70
2024/04/08 05:01:26;;;;;;;11.00;5.13;;;;;;;15.93;56.22;95831.63;5403073;26;20275;-68
2024/04/08 05:03:52;;;;;;;11.20;4.80;;;;;;;16.04;56.05;95829.88;5407984;26;20768;-70
2024/04/08 05:06:17;;;;;;;16.23;5.77;;;;;;;15.95;56.56;95835.84;5408896;26;20220;-68
2024/04/08 05:08:42;;;;;;;18.60;6.23;;;;;;;15.99;56.10;95852.31;5408936;26;20798;-70
2024/04/08 05:11:08;;;;;;;11.13;5.63;;;;;;;15.92;56.39;95857.25;5408845;26;20220;-70
2024/04/08 05:13:34;;;;;;;24.63;5.73;;;;;;;15.69;56.82;95847.50;5407735;26;20279;-67
2024/04/08 05:16:00;;;;;;;10.40;4.60;;;;;;;15.78;56.88;95852.09;5407530;26;20267;-68
2024/04/08 05:18:26;;;;;;;15.27;4.90;;;;;;;15.90;56.10;95845.94;5396255;26;20236;-69
2024/04/08 05:20:52;;;;;;;15.67;5.20;;;;;;;15.82;56.30;95841.19;5406758;26;20447;-71
2024/04/08 05:23:20;;;;;;;23.23;6.67;;;;;;;15.91;55.89;95844.13;5406647;26;20582;-72
2024/04/08 05:25:46;;;;;;;30.83;8.00;;;;;;;15.87;55.80;95848.78;5406537;26;20530;-71
2024/04/08 05:28:11;;;;;;;20.83;5.50;;;;;;;15.97;55.99;95843.66;5404624;26;20463;-69
2024/04/08 05:30:37;;;;;;;20.13;6.93;;;;;;;15.91;55.28;95857.34;5399195;26;20248;-69
2024/04/08 05:33:02;;;;;;;16.30;5.17;;;;;;;15.93;55.29;95839.56;5391199;26;20493;-71
2024/04/08 05:35:28;;;;;;;9.13;5.03;;;;;;;15.97;55.53;95841.00;5390799;26;20232;-70
2024/04/08 05:37:53;;;;;;;13.07;4.80;;;;;;;16.05;54.68;95836.00;5397616;26;20233;-70
2024/04/08 05:40:19;;;;;;;9.20;4.40;;;;;;;15.80;54.68;95814.03;5387391;26;20221;-69
2024/04/08 05:42:46;;;;;;;11.77;5.83;;;;;;;15.96;54.99;95816.34;5399175;26;20983;-69
2024/04/08 05:45:11;;;;;;;25.33;6.40;;;;;;;16.17;54.09;95829.78;5378232;26;20229;-70
2024/04/08 05:47:37;;;;;;;14.93;6.17;;;;;;;16.33;54.66;95845.38;5403197;26;20458;-72
2024/04/08 05:50:04;;;;;;;21.90;5.30;;;;;;;16.49;53.92;95840.59;5404003;26;20349;-70
2024/04/08 12:40:18;;;;;;;21.93;5.67;;;;;;;26.40;26.38;95649.72;5402817;26;20644;-70
2024/04/08 12:42:43;;;;;;;19.90;4.90;;;;;;;26.48;26.58;95656.84;5410256;26;20541;-69
2024/04/08 12:45:09;;;;;;;17.20;6.43;;;;;;;26.60;26.42;95660.81;5407730;26;20960;-70
2024/04/08 12:47:38;;;;;;;20.17;4.63;;;;;;;26.48;26.82;95651.47;5409974;26;20224;-70
2024/04/08 12:50:04;;;;;;;24.33;5.70;;;;;;;26.50;26.58;95650.25;5409090;26;20268;-70
2024/04/08 12:52:33;;;;;;;26.13;5.87;;;;;;;26.54;26.28;95645.41;5409839;26;20506;-69
2024/04/08 12:54:58;;;;;;;14.67;4.23;;;;;;;26.61;26.18;95651.72;5407942;26;21039;-69
2024/04/08 12:57:24;;;;;;;18.30;5.67;;;;;;;26.66;26.41;95660.06;5407744;26;20446;-69
2024/04/08 12:59:49;;;;;;;19.60;5.20;;;;;;;26.76;26.28;95667.84;5407080;26;20332;-69
2024/04/08 13:02:15;;;;;;;19.77;5.40;;;;;;;26.84;26.07;95662.38;5407130;26;20957;-68
2024/04/08 13:04:40;;;;;;;14.10;4.40;;;;;;;26.84;26.00;95658.88;5407466;26;20236;-70
2024/04/08 13:07:06;;;;;;;19.53;4.83;;;;;;;26.88;26.06;95652.06;5407163;26;20215;-71
2024/04/08 13:09:31;;;;;;;12.50;4.03;;;;;;;26.79;26.23;95648.66;5405258;26;20228;-70
2024/04/08 13:11:56;;;;;;;14.47;4.30;;;;;;;26.82;25.79;95640.19;5407151;26;20240;-69
2024/04/08 13:14:22;;;;;;;12.60;4.10;;;;;;;26.80;25.29;95640.38;5407028;26;20368;-70
2024/04/08 13:16:47;;;;;;;16.10;4.13;;;;;;;26.81;25.61;95631.28;5407722;26;20686;-70
2024/04/08 13:19:13;;;;;;;10.87;4.47;;;;;;;26.93;25.45;95633.47;5408165;26;20220;-69
2024/04/08 13:21:38;;;;;;;18.23;4.70;;;;;;;26.87;25.57;95626.19;5407858;26;20223;-71
2024/04/08 13:24:04;;;;;;;11.73;4.43;;;;;;;26.84;25.64;95630.09;5407699;26;20279;-70
2024/04/08 13:26:31;;;;;;;10.83;4.00;;;;;;;26.98;25.35;95615.75;5408290;26;20258;-70
2024/04/08 13:29:00;;;;;;;27.07;6.17;;;;;;;26.93;24.96;95617.34;5408162;26;20270;-70
2024/04/08 13:31:25;;;;;;;16.67;4.20;;;;;;;26.98;25.15;95618.44;5407746;26;20450;-70
2024/04/08 13:33:51;;;;;;;16.90;4.83;;;;;;;27.05;25.43;95615.84;5407723;26;20567;-68
2024/04/08 13:36:16;;;;;;;18.83;5.30;;;;;;;27.02;24.89;95602.72;5409264;26;20659;-72
2024/04/08 13:38:42;;;;;;;16.33;4.37;;;;;;;27.07;24.66;95602.16;5420531;26;20279;-72
2024/04/08 13:41:08;;;;;;;17.03;4.70;;;;;;;27.09;24.84;95595.56;5440842;26;20779;-70
2024/04/08 13:43:33;;;;;;;15.80;4.27;;;;;;;27.11;25.35;95596.22;5414297;26;20224;-70
2024/04/08 13:46:00;;;;;;;17.27;3.93;;;;;;;27.12;25.37;95587.13;5447553;26;21054;-72
2024/04/08 13:48:26;;;;;;;22.00;5.23;;;;;;;27.09;24.60;95584.78;5435389;26;20226;-72
2024/04/08 13:50:51;;;;;;;20.73;4.50;;;;;;;27.18;24.43;95591.75;5448747;26;20502;-71
2024/04/08 13:53:17;;;;;;;14.33;4.63;;;;;;;27.23;23.71;95588.50;5427969;26;20329;-71
2024/04/08 13:56:02;;;;;;;17.00;5.50;;;;;;;27.35;23.70;95589.66;5434760;26;20219;-72
2024/04/08 13:58:28;;;;;;;29.70;6.47;;;;;;;27.36;23.91;95591.34;5442312;26;20777;-72
2024/04/08 14:00:54;;;;;;;17.57;4.97;;;;;;;27.34;23.10;95590.72;5442935;26;20574;-71
2024/04/08 14:03:20;;;;;;;14.87;5.17;;;;;;;27.33;22.89;95585.50;5441730;26;20471;-70
2024/04/08 14:05:48;;;;;;;27.70;7.27;;;;;;;27.24;23.15;95579.41;5431313;26;20263;-72
2024/04/08 14:08:13;;;;;;;19.23;5.63;;;;;;;27.34;23.14;95571.03;5433026;26;20515;-71
2024/04/08 14:10:39;;;;;;;29.10;6.63;;;;;;;27.24;23.34;95572.16;5442316;26;20455;-72
2024/04/08 14:13:04;;;;;;;27.07;7.50;;;;;;;27.16;23.33;95574.09;5431499;26;20275;-73
2024/04/08 14:15:30;;;;;;;23.60;5.83;;;;;;;27.21;23.21;95579.78;5433379;26;20287;-72
2024/04/08 14:17:55;;;;;;;28.20;6.77;;;;;;;27.20;23.37;95581.66;5441059;26;20324;-70
2024/04/08 14:20:20;;;;;;;19.43;5.50;;;;;;;27.14;23.13;95581.53;5441440;26;20215;-71
2024/04/08 14:22:46;;;;;;;16.83;4.60;;;;;;;27.08;23.44;95583.13;5440027;26;20242;-72
2024/04/08 14:25:11;;;;;;;18.00;5.70;;;;;;;26.96;24.06;95585.50;5441945;26;20222;-70
2024/04/08 14:27:37;;;;;;;22.40;4.73;;;;;;;26.94;23.99;95582.16;5441670;26;20231;-70
2024/04/08 14:30:03;;;;;;;27.17;6.03;;;;;;;26.96;25.15;95585.50;5441441;26;20761;-71
2024/04/08 14:32:28;;;;;;;18.20;4.87;;;;;;;26.76;25.14;95587.91;5438975;26;20250;-70
2024/04/08 14:34:54;;;;;;;23.93;4.57;;;;;;;26.65;25.17;95574.97;5437992;26;20302;-70
2024/04/08 14:37:19;;;;;;;22.27;5.43;;;;;;;26.73;24.80;95574.03;5441727;26;20227;-71
2024/04/08 14:39:45;;;;;;;18.53;5.77;;;;;;;26.81;25.05;95576.59;5442543;26;20273;-70
2024/04/08 14:42:10;;;;;;;18.50;5.63;;;;;;;26.58;24.73;95571.34;5439196;26;20230;-72
2024/04/08 14:44:36;;;;;;;24.83;4.73;;;;;;;26.69;24.33;95572.72;5441728;26;20290;-73
2024/04/08 14:47:01;;;;;;;15.13;4.43;;;;;;;26.80;24.18;95570.38;5438852;26;20243;-70
2024/04/08 14:49:27;;;;;;;26.53;8.17;;;;;;;26.84;24.21;95565.47;5441316;26;20729;-71
2024/04/08 14:51:52;;;;;;;22.43;6.30;;;;;;;26.80;24.60;95570.38;5440892;26;20832;-71
2024/04/08 14:54:18;;;;;;;19.63;5.93;;;;;;;26.91;24.30;95561.00;5429664;26;20279;-73
2024/04/08 14:56:44;;;;;;;20.80;4.60;;;;;;;26.66;23.91;95560.47;5433147;26;20230;-70
2024/04/08 14:59:09;;;;;;;27.13;5.90;;;;;;;26.49;24.08;95561.69;5439842;26;20261;-71
2024/04/08 15:01:35;;;;;;;22.93;4.80;;;;;;;26.48;24.47;95560.00;5441703;26;20384;-72
2024/04/08 15:04:01;;;;;;;28.57;6.37;;;;;;;26.56;23.82;95559.94;5437192;26;20269;-71
2024/04/08 15:06:26;;;;;;;16.97;5.17;;;;;;;26.67;23.74;95559.47;5418629;26;20714;-70
2024/04/08 15:08:52;;;;;;;19.73;5.10;;;;;;;26.65;23.68;95556.13;5423449;26;20299;-71
2024/04/08 15:11:18;;;;;;;22.83;6.37;;;;;;;26.48;24.82;95552.78;5441848;26;20287;-71
2024/04/08 15:13:43;;;;;;;18.90;6.63;;;;;;;26.52;24.32;95545.97;5446220;26;20517;-71
2024/04/08 15:16:09;;;;;;;16.00;4.03;;;;;;;26.50;25.20;95547.19;5444729;26;20223;-71
2024/04/08 15:18:40;;;;;;;15.73;4.70;;;;;;;26.54;25.54;95537.75;5441440;26;20285;-71
2024/04/08 15:21:06;;;;;;;16.93;4.00;;;;;;;26.52;25.64;95537.91;5439879;26;20277;-70
2024/04/08 15:23:31;;;;;;;20.77;5.30;;;;;;;26.61;25.33;95538.69;5443573;26;20803;-71
2024/04/08 15:25:57;;;;;;;25.23;5.50;;;;;;;26.54;25.37;95537.75;5440985;26;20448;-72
2024/04/08 15:28:22;;;;;;;17.90;5.20;;;;;;;26.48;24.12;95533.09;5441140;26;20223;-71
2024/04/08 15:30:55;;;;;;;32.30;5.93;;;;;;;26.60;24.56;95537.03;5438562;26;20864;-71
2024/04/08 15:33:21;;;;;;;21.00;5.40;;;;;;;26.55;24.03;95528.66;5438287;26;20269;-71
2024/04/08 15:35:55;;;;;;;36.97;7.43;;;;;;;26.51;23.93;95522.81;5440728;26;20460;-71
2024/04/08 15:38:21;;;;;;;25.63;6.20;;;;;;;26.48;24.05;95525.88;5439827;26;20222;-70
2024/04/08 15:40:58;;;;;;;105.03;12.20;;;;;;;26.44;24.24;95515.69;5435566;26;20454;-71
2024/04/08 15:43:24;;;;;;;21.90;7.10;;;;;;;26.42;23.88;95512.34;5427501;26;20251;-71
2024/04/08 15:46:01;;;;;;;20.80;5.30;;;;;;;26.35;24.18;95514.94;5440261;26;20532;-70
2024/04/08 15:48:29;;;;;;;22.20;4.83;;;;;;;26.37;24.08;95519.09;5438353;26;20445;-71
2024/04/08 15:50:54;;;;;;;26.40;6.10;;;;;;;26.35;23.21;95523.84;5436659;26;20457;-71
2024/04/08 15:53:20;;;;;;;22.20;5.90;;;;;;;26.36;23.33;95514.75;5420912;26;20741;-70
2024/04/08 15:55:46;;;;;;;15.10;6.23;;;;;;;26.19;23.08;95511.41;5436085;26;20223;-70
2024/04/08 15:58:12;;;;;;;33.00;6.90;;;;;;;26.19;23.21;95514.09;5441276;26;20270;-70
2024/04/08 16:00:38;;;;;;;24.30;6.70;;;;;;;26.13;23.59;95517.53;5437692;26;20787;-71
2024/04/08 16:03:09;;;;;;;47.80;7.87;;;;;;;26.12;24.21;95512.34;5438760;26;20520;-69
2024/04/08 16:05:38;;;;;;;35.10;7.43;;;;;;;26.05;24.46;95523.00;5433133;26;20472;-69
2024/04/08 16:08:04;;;;;;;37.40;7.37;;;;;;;26.00;25.11;95519.19;5440922;26;20505;-71
2024/04/08 16:10:35;;;;;;;40.53;7.60;;;;;;;25.96;24.53;95521.41;5441178;26;20441;-70
2024/04/08 16:13:00;;;;;;;91.60;10.30;;;;;;;26.00;25.20;95511.13;5439209;26;20223;-70
2024/04/08 16:15:26;;;;;;;29.10;6.73;;;;;;;26.02;23.87;95517.16;5429064;26;21319;-70
2024/04/08 16:17:51;;;;;;;25.63;6.50;;;;;;;25.98;24.79;95520.22;5438292;26;20327;-71
2024/04/08 16:20:17;;;;;;;25.67;5.10;;;;;;;25.96;25.27;95521.41;5442894;26;20294;-70
2024/04/08 16:22:42;;;;;;;22.60;6.17;;;;;;;25.90;24.73;95514.94;5443070;26;20452;-70
2024/04/08 16:25:09;;;;;;;20.83;5.80;;;;;;;25.74;25.49;95509.69;5443114;26;20282;-70
2024/04/08 16:27:34;;;;;;;20.47;5.30;;;;;;;25.63;25.92;95510.13;5450443;26;20232;-70
2024/04/08 16:30:00;;;;;;;23.20;6.23;;;;;;;25.56;26.47;95510.88;5442144;26;20502;-71
2024/04/08 16:32:28;;;;;;;20.07;5.30;;;;;;;25.57;27.10;95503.63;5452130;26;20219;-70
2024/04/08 16:34:54;;;;;;;21.87;8.20;;;;;;;25.54;26.88;95507.53;5444226;26;20239;-70
2024/04/08 16:37:19;;;;;;;29.73;5.93;;;;;;;25.52;27.06;95512.25;5450615;26;20670;-70
2024/04/08 16:39:44;;;;;;;25.43;7.83;;;;;;;25.57;26.06;95511.69;5442099;26;20355;-70
2024/04/08 16:42:10;;;;;;;21.23;4.83;;;;;;;25.64;26.04;95506.44;5444167;26;20282;-68
2024/04/08 16:44:35;;;;;;;19.97;6.50;;;;;;;25.55;26.68;95501.13;5435595;26;20749;-70
2024/04/08 16:47:01;;;;;;;22.93;6.07;;;;;;;25.57;27.46;95500.97;5443932;26;20269;-70
2024/04/08 16:49:28;;;;;;;32.97;8.13;;;;;;;25.53;28.01;95491.59;5442264;26;20274;-69
2024/04/08 16:51:54;;;;;;;33.73;9.13;;;;;;;25.46;29.79;95483.41;5434517;26;20231;-70
2024/04/08 16:54:20;;;;;;;17.23;6.07;;;;;;;25.33;29.85;95488.59;5443499;26;20470;-70
2024/04/08 16:56:45;;;;;;;28.80;7.20;;;;;;;25.32;29.41;95484.22;5443950;26;20219;-70
2024/04/08 16:59:11;;;;;;;18.13;6.23;;;;;;;25.22;30.14;95480.94;5436544;26;20235;-69
2024/04/08 17:01:36;;;;;;;27.70;7.20;;;;;;;25.11;30.09;95485.72;5428645;26;20224;-69
2024/04/08 17:04:03;;;;;;;18.93;4.80;;;;;;;25.09;30.69;95485.06;5438119;26;20287;-70
2024/04/08 17:06:56;;;;;;;23.87;6.57;;;;;;;25.01;30.39;95485.09;5416533;26;20231;-69
2024/04/08 17:09:24;;;;;;;28.03;6.70;;;;;;;24.98;30.33;95490.00;5438740;26;20453;-69
2024/04/08 17:11:56;;;;;;;25.07;6.50;;;;;;;24.93;30.27;95479.81;5455523;26;20452;-70
2024/04/08 17:14:21;;;;;;;20.77;6.13;;;;;;;24.86;30.55;95477.00;5442568;26;20442;-69
2024/04/08 17:16:48;;;;;;;15.50;6.03;;;;;;;24.80;31.15;95475.00;5461071;26;20512;-68
2024/04/08 17:19:14;;;;;;;27.30;6.70;;;;;;;24.73;31.57;95460.63;5438638;26;20273;-70
2024/04/08 17:21:40;;;;;;;20.40;5.40;;;;;;;24.69;32.01;95462.03;5443656;26;20496;-69
2024/04/08 17:24:06;;;;;;;23.27;5.37;;;;;;;24.63;32.35;95462.72;5443308;26;20705;-68
2024/04/08 17:26:31;;;;;;;22.00;5.93;;;;;;;24.56;32.72;95461.75;5444399;26;20295;-69
2024/04/08 17:28:56;;;;;;;18.47;5.53;;;;;;;24.48;32.29;95449.25;5442331;26;20440;-71
2024/04/08 17:31:22;;;;;;;15.00;6.10;;;;;;;24.45;32.71;95450.41;5441396;26;20254;-70
2024/04/08 17:33:48;;;;;;;25.13;5.63;;;;;;;24.33;32.91;95445.59;5438458;26;20262;-70
2024/04/08 17:36:13;;;;;;;24.13;6.13;;;;;;;24.25;33.05;95449.16;5409237;26;20220;-70
2024/04/08 17:38:38;;;;;;;21.70;5.70;;;;;;;24.19;32.54;95449.84;5407623;26;20344;-70
2024/04/08 17:41:07;;;;;;;19.50;5.83;;;;;;;24.13;32.75;95439.84;5408249;26;20298;-69
2024/04/08 17:43:35;;;;;;;26.00;7.60;;;;;;;24.07;32.76;95436.00;5408973;26;20228;-70
2024/04/08 17:46:04;;;;;;;25.17;7.80;;;;;;;24.09;32.09;95433.97;5409753;26;20965;-69
2024/04/08 17:48:34;;;;;;;17.23;6.30;;;;;;;24.12;32.12;95436.34;5409073;26;20446;-70
2024/04/08 17:51:02;;;;;;;17.40;6.40;;;;;;;24.08;31.92;95443.03;5408191;26;21368;-70
2024/04/08 17:53:31;;;;;;;22.47;6.10;;;;;;;24.01;32.59;95432.19;5407538;26;20533;-70
2024/04/08 17:56:01;;;;;;;24.07;6.93;;;;;;;23.94;33.38;95439.25;5408511;26;21095;-69
2024/04/08 17:58:28;;;;;;;19.70;5.30;;;;;;;23.78;34.01;95434.78;5409011;26;20515;-69
2024/04/08 18:00:56;;;;;;;24.97;7.53;;;;;;;23.75;34.28;95429.78;5406262;26;20950;-68
2024/04/08 18:03:21;;;;;;;17.57;6.10;;;;;;;23.58;34.84;95428.13;5407892;26;21089;-70
2024/04/08 18:05:47;;;;;;;21.03;6.60;;;;;;;23.49;34.65;95427.31;5408846;26;20489;-68
2024/04/08 18:08:14;;;;;;;25.77;5.50;;;;;;;23.50;34.75;95428.97;5407609;26;20224;-68
2024/04/08 18:10:39;;;;;;;19.17;6.67;;;;;;;23.48;34.71;95424.78;5407933;26;20229;-71